createdAt,value
2019-05-03T08:12:32.485Z,0.80
2019-05-03T08:22:34.518Z,0.70
2019-05-03T08:32:35.377Z,0.30
2019-05-03T08:42:36.402Z,0.43
2019-05-03T08:52:37.661Z,0.30
2019-05-03T09:02:38.957Z,0.50
2019-05-03T09:12:40.234Z,0.50
2019-05-03T09:22:41.506Z,0.30
2019-05-03T09:32:44.791Z,0.20
2019-05-03T09:42:44.583Z,0.20
2019-05-03T09:52:47.117Z,0.30
2019-05-03T10:02:46.761Z,0.30
2019-05-03T10:12:48.084Z,0.40
2019-05-03T10:22:49.376Z,0.30
2019-05-03T10:32:50.699Z,0.28
2019-05-03T10:42:52.746Z,0.30
2019-05-03T10:52:55.518Z,0.43
2019-05-03T11:02:55.335Z,0.67
2019-05-03T11:12:56.613Z,0.80
2019-05-03T11:22:57.884Z,0.63
2019-05-03T11:32:59.942Z,0.77
2019-05-03T11:43:01.238Z,0.93
2019-05-03T11:53:02.516Z,1.00
2019-05-03T12:03:04.984Z,1.33
2019-05-03T12:13:05.274Z,1.40
2019-05-03T12:23:07.426Z,1.30
2019-05-03T12:33:07.929Z,1.50
2019-05-03T12:43:09.233Z,1.13
2019-05-03T12:53:10.528Z,1.80
2019-05-03T13:13:21.162Z,1.80
2019-05-03T13:23:25.164Z,1.20
2019-05-03T13:33:25.348Z,1.00
2019-05-03T13:43:26.741Z,1.30
2019-05-03T13:53:28.045Z,1.60
2019-05-03T14:03:29.326Z,1.33
2019-05-03T14:13:32.669Z,1.40
2019-05-03T14:23:34.672Z,1.43
2019-05-03T14:33:35.473Z,1.37
2019-05-03T14:43:36.580Z,1.47
2019-05-03T14:53:37.841Z,1.17
2019-05-03T15:03:41.217Z,1.90
2019-05-03T15:13:42.519Z,2.20
2019-05-03T15:23:45.337Z,1.60
2019-05-03T15:33:45.175Z,1.50
2019-05-03T15:43:46.473Z,2.57
2019-05-03T15:53:47.774Z,2.63
2019-05-03T16:14:09.461Z,2.00
2019-05-03T16:24:10.771Z,1.80
